ジャージー島 の空港の天気 - METARとTAF

ジャージー空港 ( EGJJ / JER ) - ジャージー島 ジャージー島
飛行場実況気象(Metar)
観測時間12/08 09:20 GMT (12/08 09:20 UTC)
風向・風速西南西 7m/s
視程10km以上
天気現象周辺でしゅう雨
少しの雲 雲底高度 460m
全天の4割程度の雲 雲底高度 850m
気温6℃
湿度76%
気圧996hPa
METAREGJJ 080920Z 25013KT 9999 VCSH FEW015CB SCT028 06/02 Q0996 RESHRA
過去の天気等 Google飛行場航空写真 Wunderground天気予報

過去48時間のMETAR

飛行場予報(TAF)
発表時間: 12/08 08:04 GMT (12/08 08:04 UTC)
予報対象時間: 8日9時 GMT ~ 8日18時 GMT
風向・風速西 7m/s
視程10km以上
少しの積乱雲 雲底高度 460m
全天の4割程度の雲 雲底高度 760m
8日9時 GMT ~ 8日18時 GMT に一時的に
風向・風速西 8m/s 瞬間風速 13m/s
視程6000m
天気現象しゅう雨あられ
全天の8割程度の積乱雲 雲底高度 460m
8日9時 GMT ~ 8日18時 GMT に 確率 40% で一時的に
風向・風速西北西 11m/s 瞬間風速 18m/s
視程3000m
天気現象強い雷あられ
全天の8割程度の積乱雲 雲底高度 300m
TAF EGJJ 080804Z 0809/0818 27013KT 9999 FEW015CB SCT025
TEMPO 0809/0818 28015G25KT 6000 SHRAGS BKN015CB
PROB40 TEMPO 0809/0818 29022G35KT 3000 +TSGS BKN010CB